Time;durP1;ratioP1;P1;durP2;ratioP2;P2;SDS_P1;SDS_P2;PMS_P1;PMS_P2;Temp;Humidity;BMP_temperature;BMP_pressure;BME280_temperature;BME280_humidity;BME280_pressure;Samples;Min_cycle;Max_cycle;Signal;HPM_P1;HPM_P2
2022/07/24 00:01:08;;;;;;;2.43;2.23;;;;;;;;;;4991697;28;20550;-54
2022/07/24 00:03:34;;;;;;;3.77;2.63;;;;;;;;;;4992766;28;20312;-55
2022/07/24 00:06:00;;;;;;;2.70;2.50;;;;;;;;;;4995257;28;20197;-55
2022/07/24 00:08:27;;;;;;;3.43;2.90;;;;;;;;;;4995144;28;20202;-54
2022/07/24 00:10:53;;;;;;;3.63;3.20;;;;;;;;;;4995024;28;20217;-54
2022/07/24 00:13:19;;;;;;;4.00;2.93;;;;;;;;;;4995181;28;20190;-54
2022/07/24 00:15:46;;;;;;;3.13;2.60;;;;;;;;;;4995039;28;20720;-54
2022/07/24 00:18:12;;;;;;;3.03;2.63;;;;;;;;;;4995144;28;20322;-54
2022/07/24 00:20:38;;;;;;;2.70;2.50;;;;;;;;;;4994959;28;20194;-54
2022/07/24 00:23:04;;;;;;;6.77;2.80;;;;;;;;;;4994879;28;20237;-54
2022/07/24 00:25:32;;;;;;;2.90;2.60;;;;;;;;;;4995037;28;20289;-54
2022/07/24 00:27:58;;;;;;;2.93;2.63;;;;;;;;;;4994900;28;20217;-54
2022/07/24 00:30:24;;;;;;;4.40;2.50;;;;;;;;;;4994771;28;20198;-54
2022/07/24 00:32:50;;;;;;;3.23;2.30;;;;;;;;;;4994733;28;20620;-54
2022/07/24 00:35:17;;;;;;;2.80;2.33;;;;;;;;;;4994813;28;20198;-54
2022/07/24 00:37:46;;;;;;;3.50;2.13;;;;;;;;;;4994706;28;20233;-54
2022/07/24 00:40:12;;;;;;;2.37;2.17;;;;;;;;;;4994982;28;20195;-54
2022/07/24 00:42:39;;;;;;;4.50;2.53;;;;;;;;;;4994440;28;20713;-54
2022/07/24 00:45:06;;;;;;;2.57;2.30;;;;;;;;;;4994324;28;20225;-55
2022/07/24 00:47:32;;;;;;;3.10;2.30;;;;;;;;;;4994377;28;20325;-54
2022/07/24 00:49:59;;;;;;;2.70;2.20;;;;;;;;;;4994639;28;20288;-55
2022/07/24 00:52:25;;;;;;;2.77;2.23;;;;;;;;;;4994471;28;20277;-55
2022/07/24 00:54:51;;;;;;;2.60;2.40;;;;;;;;;;4994316;28;20232;-54
2022/07/24 00:57:17;;;;;;;2.83;2.30;;;;;;;;;;4994511;28;20260;-54
2022/07/24 00:59:45;;;;;;;2.50;2.20;;;;;;;;;;4994238;28;20198;-54
2022/07/24 01:02:11;;;;;;;2.30;1.90;;;;;;;;;;4994456;28;20203;-54
2022/07/24 01:04:38;;;;;;;3.47;2.77;;;;;;;;;;4994122;28;20281;-53
2022/07/24 01:07:04;;;;;;;2.70;2.50;;;;;;;;;;4994237;28;20256;-54
2022/07/24 01:09:30;;;;;;;3.07;2.60;;;;;;;;;;4994183;28;20571;-54
2022/07/24 01:11:57;;;;;;;3.10;2.67;;;;;;;;;;4994275;28;20260;-54
2022/07/24 01:14:23;;;;;;;4.20;2.50;;;;;;;;;;4993607;28;20194;-54
2022/07/24 01:16:51;;;;;;;3.80;2.30;;;;;;;;;;4993476;28;20198;-54
2022/07/24 01:19:17;;;;;;;4.33;2.70;;;;;;;;;;4994094;28;20203;-54
2022/07/24 01:21:47;;;;;;;3.13;2.60;;;;;;;;;;4993852;28;20202;-54
2022/07/24 01:24:13;;;;;;;2.83;2.53;;;;;;;;;;4993920;28;20581;-54
2022/07/24 01:26:39;;;;;;;3.03;2.70;;;;;;;;;;4993766;28;20234;-54
2022/07/24 01:29:05;;;;;;;2.63;2.30;;;;;;;;;;4993771;28;20615;-54
2022/07/24 01:31:31;;;;;;;2.70;2.30;;;;;;;;;;4993724;28;20735;-54
2022/07/24 01:33:57;;;;;;;2.97;2.77;;;;;;;;;;4993817;28;20195;-54
2022/07/24 01:36:23;;;;;;;3.17;2.83;;;;;;;;;;4993923;28;20627;-54
2022/07/24 01:38:50;;;;;;;2.63;2.43;;;;;;;;;;4993184;28;20281;-54
2022/07/24 01:41:16;;;;;;;4.77;2.80;;;;;;;;;;4993849;28;20641;-54
2022/07/24 01:43:42;;;;;;;3.37;2.20;;;;;;;;;;4993354;28;20648;-54
2022/07/24 01:46:09;;;;;;;2.90;2.60;;;;;;;;;;4993335;28;20242;-54
2022/07/24 01:48:35;;;;;;;3.53;2.40;;;;;;;;;;4993351;28;20206;-54
2022/07/24 01:51:01;;;;;;;3.80;2.97;;;;;;;;;;4993689;28;20543;-53
2022/07/24 01:53:27;;;;;;;3.33;2.50;;;;;;;;;;4993374;28;20209;-54
2022/07/24 01:55:55;;;;;;;3.33;2.60;;;;;;;;;;4993205;28;20213;-54
2022/07/24 01:58:21;;;;;;;3.40;2.77;;;;;;;;;;4993198;28;20250;-54
2022/07/24 02:00:47;;;;;;;4.17;3.10;;;;;;;;;;4992995;28;20206;-54
2022/07/24 02:03:13;;;;;;;3.43;2.83;;;;;;;;;;4993160;28;20222;-54
2022/07/24 02:05:39;;;;;;;3.27;3.03;;;;;;;;;;4993002;28;20199;-53
2022/07/24 02:08:05;;;;;;;4.60;3.00;;;;;;;;;;4993061;28;20198;-54
2022/07/24 02:10:31;;;;;;;4.63;3.00;;;;;;;;;;4993081;28;20260;-54
2022/07/24 02:12:58;;;;;;;3.07;2.80;;;;;;;;;;4992942;28;20228;-54
2022/07/24 02:15:24;;;;;;;3.30;3.00;;;;;;;;;;4992869;28;20260;-54
2022/07/24 02:17:51;;;;;;;4.40;2.90;;;;;;;;;;4992829;28;20253;-54
2022/07/24 02:20:18;;;;;;;3.23;2.80;;;;;;;;;;4992947;28;20248;-53
2022/07/24 02:22:44;;;;;;;3.17;2.87;;;;;;;;;;4992765;28;20222;-53
2022/07/24 02:25:10;;;;;;;3.40;3.07;;;;;;;;;;4992786;28;20225;-54
2022/07/24 02:27:36;;;;;;;3.77;2.90;;;;;;;;;;4992526;28;20587;-53
2022/07/24 02:30:04;;;;;;;3.10;2.80;;;;;;;;;;4992636;28;20202;-53
2022/07/24 02:32:30;;;;;;;5.30;3.30;;;;;;;;;;4992793;28;20212;-54
2022/07/24 02:34:56;;;;;;;3.23;2.93;;;;;;;;;;4992478;28;20202;-53
2022/07/24 02:37:22;;;;;;;3.23;2.93;;;;;;;;;;4992577;28;20608;-54
2022/07/24 02:39:48;;;;;;;3.13;2.70;;;;;;;;;;4992497;28;20202;-55
2022/07/24 02:42:15;;;;;;;3.60;2.93;;;;;;;;;;4992633;28;20265;-54
2022/07/24 02:44:41;;;;;;;3.50;2.83;;;;;;;;;;4992310;28;20257;-53
2022/07/24 02:47:08;;;;;;;3.50;2.70;;;;;;;;;;4992351;28;20257;-54
2022/07/24 02:49:35;;;;;;;4.83;2.87;;;;;;;;;;4992123;28;20723;-53
2022/07/24 02:52:01;;;;;;;3.07;2.50;;;;;;;;;;4992664;28;20284;-53
2022/07/24 02:54:27;;;;;;;3.03;2.80;;;;;;;;;;4992466;28;20680;-53
2022/07/24 02:56:53;;;;;;;2.57;2.37;;;;;;;;;;4992353;28;20206;-53
2022/07/24 02:59:19;;;;;;;2.70;2.50;;;;;;;;;;4992285;28;20672;-53
2022/07/24 03:01:45;;;;;;;5.60;2.87;;;;;;;;;;4992412;28;20202;-53
2022/07/24 03:04:13;;;;;;;2.93;2.63;;;;;;;;;;4992352;28;20237;-53
2022/07/24 03:06:38;;;;;;;3.97;3.03;;;;;;;;;;4992181;28;20872;-53
2022/07/24 03:09:04;;;;;;;3.00;2.70;;;;;;;;;;4992166;28;20202;-53
2022/07/24 03:11:30;;;;;;;3.67;2.67;;;;;;;;;;4992435;28;20610;-53
2022/07/24 03:13:56;;;;;;;3.73;2.70;;;;;;;;;;4992025;28;20202;-53
2022/07/24 03:16:22;;;;;;;3.43;3.10;;;;;;;;;;4992255;28;20205;-53
2022/07/24 03:18:48;;;;;;;2.70;2.50;;;;;;;;;;4992119;28;20572;-53
2022/07/24 03:21:17;;;;;;;3.43;2.90;;;;;;;;;;4992222;28;20202;-54
2022/07/24 03:23:43;;;;;;;3.07;2.73;;;;;;;;;;4992071;28;20218;-53
2022/07/24 03:26:09;;;;;;;3.47;2.93;;;;;;;;;;4992067;28;20293;-53
2022/07/24 03:28:35;;;;;;;3.40;3.10;;;;;;;;;;4992035;28;20206;-53
2022/07/24 03:31:02;;;;;;;3.80;2.87;;;;;;;;;;4991910;28;20222;-53
2022/07/24 03:33:29;;;;;;;3.30;3.00;;;;;;;;;;4992280;28;20194;-53
2022/07/24 03:35:55;;;;;;;3.37;2.80;;;;;;;;;;4991919;28;20679;-53
2022/07/24 03:38:22;;;;;;;3.13;2.83;;;;;;;;;;4993007;28;20202;-53
2022/07/24 03:40:48;;;;;;;3.57;3.27;;;;;;;;;;4995796;28;20683;-53
2022/07/24 03:43:14;;;;;;;3.50;3.17;;;;;;;;;;4996091;28;20746;-53
2022/07/24 03:45:40;;;;;;;3.47;2.73;;;;;;;;;;4995592;28;20218;-53
2022/07/24 03:48:06;;;;;;;3.27;3.07;;;;;;;;;;4995441;28;20242;-53
2022/07/24 03:50:32;;;;;;;3.30;3.00;;;;;;;;;;4995763;28;20669;-53
2022/07/24 03:52:58;;;;;;;5.03;3.00;;;;;;;;;;4995593;28;20195;-53
2022/07/24 03:55:25;;;;;;;5.80;3.33;;;;;;;;;;4995440;28;20230;-53
2022/07/24 03:57:51;;;;;;;5.30;2.83;;;;;;;;;;4995367;28;20202;-53
2022/07/24 04:00:17;;;;;;;3.50;2.97;;;;;;;;;;4995403;28;20209;-53
2022/07/24 04:02:43;;;;;;;3.70;3.10;;;;;;;;;;4995241;28;20583;-53
2022/07/24 04:05:09;;;;;;;4.47;3.20;;;;;;;;;;4995366;28;20206;-53
2022/07/24 04:07:35;;;;;;;3.43;3.13;;;;;;;;;;4995614;28;20202;-53
2022/07/24 04:10:01;;;;;;;3.30;3.00;;;;;;;;;;4995292;28;20308;-53
2022/07/24 04:12:29;;;;;;;4.00;2.97;;;;;;;;;;4995477;28;20206;-53
2022/07/24 04:14:55;;;;;;;3.83;3.30;;;;;;;;;;4995262;28;20225;-53
2022/07/24 04:17:21;;;;;;;3.20;2.93;;;;;;;;;;4995205;28;20673;-53
2022/07/24 04:19:47;;;;;;;4.03;3.03;;;;;;;;;;4994990;28;20202;-53
2022/07/24 04:22:13;;;;;;;4.27;3.50;;;;;;;;;;4995215;28;20198;-53
2022/07/24 04:24:39;;;;;;;3.80;3.47;;;;;;;;;;4994940;28;20836;-53
2022/07/24 04:27:05;;;;;;;4.40;3.90;;;;;;;;;;4994893;28;20281;-53
2022/07/24 04:29:32;;;;;;;3.80;3.40;;;;;;;;;;4994949;28;20301;-53
2022/07/24 04:31:58;;;;;;;4.40;3.50;;;;;;;;;;4994837;28;20206;-53
2022/07/24 04:34:24;;;;;;;4.90;3.70;;;;;;;;;;4994837;28;20564;-54
2022/07/24 04:36:50;;;;;;;3.60;3.30;;;;;;;;;;4994711;28;20732;-53
2022/07/24 04:39:16;;;;;;;5.63;3.80;;;;;;;;;;4994961;28;20271;-53
2022/07/24 04:41:42;;;;;;;3.87;3.57;;;;;;;;;;4994821;28;20743;-53
2022/07/24 04:44:08;;;;;;;5.80;3.63;;;;;;;;;;4994427;28;20241;-53
2022/07/24 04:46:35;;;;;;;3.77;3.00;;;;;;;;;;4994463;28;20794;-53
2022/07/24 04:49:01;;;;;;;3.73;3.40;;;;;;;;;;4994266;28;20282;-53
2022/07/24 04:51:28;;;;;;;6.40;3.53;;;;;;;;;;4993672;28;20214;-54
2022/07/24 04:53:54;;;;;;;4.80;3.27;;;;;;;;;;4994609;28;20695;-53
2022/07/24 04:56:19;;;;;;;3.20;2.90;;;;;;;;;;4994540;28;20234;-52
2022/07/24 04:58:46;;;;;;;3.40;3.10;;;;;;;;;;4994645;28;20218;-53
2022/07/24 05:01:12;;;;;;;3.43;3.10;;;;;;;;;;4993011;28;20206;-53
2022/07/24 05:03:40;;;;;;;3.37;3.13;;;;;;;;;;4994228;28;20236;-53
2022/07/24 05:06:06;;;;;;;2.90;2.70;;;;;;;;;;4994161;28;20578;-53
2022/07/24 05:08:32;;;;;;;3.83;3.13;;;;;;;;;;4994233;28;20628;-53
2022/07/24 05:10:58;;;;;;;3.53;2.90;;;;;;;;;;4994143;28;20230;-53
2022/07/24 05:13:24;;;;;;;3.00;2.67;;;;;;;;;;4994261;28;20623;-53
2022/07/24 05:15:50;;;;;;;3.00;2.80;;;;;;;;;;4993967;28;20285;-53
2022/07/24 05:18:16;;;;;;;2.50;2.30;;;;;;;;;;4994077;28;20198;-53
2022/07/24 05:20:43;;;;;;;4.03;3.10;;;;;;;;;;4994069;28;20225;-53
2022/07/24 05:23:09;;;;;;;3.13;2.83;;;;;;;;;;4993755;28;20233;-53
2022/07/24 05:25:35;;;;;;;3.17;2.90;;;;;;;;;;4993846;28;20194;-53
2022/07/24 05:28:01;;;;;;;2.93;2.70;;;;;;;;;;4993602;28;20202;-53
2022/07/24 05:30:27;;;;;;;3.13;2.60;;;;;;;;;;4993838;28;20194;-53
2022/07/24 05:32:53;;;;;;;4.37;2.60;;;;;;;;;;4993765;28;20241;-53
2022/07/24 05:35:19;;;;;;;3.23;2.80;;;;;;;;;;4993702;28;20201;-53
2022/07/24 05:37:46;;;;;;;2.80;2.50;;;;;;;;;;4993815;28;20198;-53
2022/07/24 05:40:12;;;;;;;3.10;2.80;;;;;;;;;;4993519;28;20205;-53
2022/07/24 05:42:38;;;;;;;2.97;2.67;;;;;;;;;;4993479;28;20206;-53
2022/07/24 05:45:05;;;;;;;3.27;2.80;;;;;;;;;;4993209;28;20798;-53
2022/07/24 05:47:35;;;;;;;2.90;2.30;;;;;;;;;;4993411;28;20230;-54
2022/07/24 05:50:01;;;;;;;5.10;2.60;;;;;;;;;;4993433;28;20277;-53
2022/07/24 05:52:27;;;;;;;3.17;2.60;;;;;;;;;;4993489;28;20634;-54
2022/07/24 05:54:54;;;;;;;3.23;2.70;;;;;;;;;;4993340;28;20260;-53
2022/07/24 05:57:20;;;;;;;3.63;2.33;;;;;;;;;;4993205;28;20214;-54
2022/07/24 05:59:46;;;;;;;2.33;2.10;;;;;;;;;;4993185;28;20210;-54
2022/07/24 06:02:12;;;;;;;2.30;2.10;;;;;;;;;;4992513;28;20290;-54
2022/07/24 06:04:41;;;;;;;3.03;2.20;;;;;;;;;;4993069;28;20234;-54
2022/07/24 06:07:07;;;;;;;2.60;2.10;;;;;;;;;;4992861;28;20681;-54
2022/07/24 06:09:33;;;;;;;2.90;2.00;;;;;;;;;;4992984;28;20237;-54
2022/07/24 06:12:01;;;;;;;2.20;2.00;;;;;;;;;;4993051;28;20226;-54
2022/07/24 06:14:27;;;;;;;2.33;1.90;;;;;;;;;;4992591;28;20674;-54
2022/07/24 06:16:53;;;;;;;2.30;2.10;;;;;;;;;;4992565;28;20223;-54
2022/07/24 06:19:19;;;;;;;2.67;2.20;;;;;;;;;;4992634;28;20206;-55
2022/07/24 06:21:45;;;;;;;1.80;1.70;;;;;;;;;;4993043;28;20218;-54
2022/07/24 06:24:11;;;;;;;2.17;1.97;;;;;;;;;;4992552;28;20250;-54
2022/07/24 06:26:37;;;;;;;3.17;1.90;;;;;;;;;;4992852;28;20790;-54
2022/07/24 06:29:04;;;;;;;3.00;1.90;;;;;;;;;;4991980;28;20208;-55
2022/07/24 06:31:30;;;;;;;1.97;1.67;;;;;;;;;;4992693;28;20668;-54
2022/07/24 06:33:56;;;;;;;1.93;1.73;;;;;;;;;;4992543;28;20213;-55
2022/07/24 06:36:22;;;;;;;2.23;1.73;;;;;;;;;;4992636;28;20256;-54
2022/07/24 06:38:48;;;;;;;2.10;1.90;;;;;;;;;;4992547;28;20198;-54
2022/07/24 06:41:14;;;;;;;2.00;1.80;;;;;;;;;;4992500;28;20271;-54
2022/07/24 06:43:40;;;;;;;1.93;1.50;;;;;;;;;;4992274;28;20590;-54
2022/07/24 06:46:08;;;;;;;3.33;1.50;;;;;;;;;;4992099;28;20332;-55
2022/07/24 06:48:34;;;;;;;3.03;1.60;;;;;;;;;;4992454;28;20292;-55
2022/07/24 06:51:00;;;;;;;2.77;1.77;;;;;;;;;;4992295;28;20280;-55
2022/07/24 06:53:26;;;;;;;2.90;1.70;;;;;;;;;;4992216;28;20194;-55
2022/07/24 06:55:53;;;;;;;3.80;1.80;;;;;;;;;;4992184;28;20316;-55
2022/07/24 06:58:19;;;;;;;2.73;1.90;;;;;;;;;;4991959;28;20201;-55
2022/07/24 07:00:45;;;;;;;1.83;1.70;;;;;;;;;;4992297;28;20206;-55
2022/07/24 07:03:12;;;;;;;3.03;1.70;;;;;;;;;;4991948;28;20233;-55
2022/07/24 07:05:38;;;;;;;2.23;1.73;;;;;;;;;;4992186;28;20206;-55
2022/07/24 07:08:05;;;;;;;3.30;1.50;;;;;;;;;;4991927;28;20209;-55
2022/07/24 07:10:31;;;;;;;2.70;1.80;;;;;;;;;;4992227;28;20210;-55
2022/07/24 07:12:57;;;;;;;1.50;1.40;;;;;;;;;;4992288;28;20195;-55
2022/07/24 07:15:23;;;;;;;3.67;1.60;;;;;;;;;;4996174;28;20682;-55
2022/07/24 07:17:49;;;;;;;2.57;1.73;;;;;;;;;;4996121;28;20256;-56
2022/07/24 07:20:16;;;;;;;1.87;1.60;;;;;;;;;;4996133;28;20198;-56
2022/07/24 07:22:42;;;;;;;3.40;1.80;;;;;;;;;;4996163;28;20201;-56
2022/07/24 07:25:09;;;;;;;4.07;1.70;;;;;;;;;;4995929;28;20228;-55
2022/07/24 07:27:35;;;;;;;2.87;1.80;;;;;;;;;;4995986;28;20202;-55
2022/07/24 07:30:01;;;;;;;1.47;1.37;;;;;;;;;;4996130;28;20645;-55
2022/07/24 07:32:27;;;;;;;1.50;1.40;;;;;;;;;;4996106;28;20202;-58
2022/07/24 07:34:53;;;;;;;2.10;1.53;;;;;;;;;;4995806;28;20602;-57
2022/07/24 07:37:21;;;;;;;2.53;1.80;;;;;;;;;;4995768;28;20246;-57
2022/07/24 07:39:47;;;;;;;1.83;1.67;;;;;;;;;;4995974;28;20215;-56
2022/07/24 07:42:13;;;;;;;2.40;1.77;;;;;;;;;;4995747;28;20546;-53
2022/07/24 07:44:39;;;;;;;2.33;1.80;;;;;;;;;;4995595;28;20245;-54
2022/07/24 07:47:05;;;;;;;2.00;1.70;;;;;;;;;;4995578;28;20249;-54
2022/07/24 07:49:31;;;;;;;2.80;1.70;;;;;;;;;;4995412;28;20194;-54
2022/07/24 07:51:57;;;;;;;2.00;1.70;;;;;;;;;;4995617;28;20202;-53
2022/07/24 07:54:24;;;;;;;3.30;1.80;;;;;;;;;;4992367;28;20559;-54
2022/07/24 07:56:50;;;;;;;1.70;1.60;;;;;;;;;;4995110;28;20234;-54
2022/07/24 07:59:16;;;;;;;2.37;1.80;;;;;;;;;;4995056;28;20693;-54
2022/07/24 08:01:42;;;;;;;1.63;1.40;;;;;;;;;;4995079;28;20199;-54
2022/07/24 08:04:08;;;;;;;2.53;1.83;;;;;;;;;;4994789;28;20241;-53
2022/07/24 08:06:34;;;;;;;2.27;1.90;;;;;;;;;;4995061;28;20226;-54
2022/07/24 08:09:00;;;;;;;1.80;1.70;;;;;;;;;;4995150;28;20298;-54
2022/07/24 08:11:28;;;;;;;2.63;1.97;;;;;;;;;;4994880;28;20204;-53
2022/07/24 08:13:53;;;;;;;2.87;2.03;;;;;;;;;;4994942;28;20201;-54
2022/07/24 08:16:19;;;;;;;2.63;1.77;;;;;;;;;;4994812;28;20260;-54
2022/07/24 08:18:45;;;;;;;2.13;1.90;;;;;;;;;;4995053;28;20293;-54
2022/07/24 08:21:12;;;;;;;3.40;2.80;;;;;;;;;;4994919;28;20288;-54
2022/07/24 08:23:38;;;;;;;2.40;2.20;;;;;;;;;;4994721;28;20261;-54
2022/07/24 08:26:04;;;;;;;3.10;2.33;;;;;;;;;;4994714;28;20205;-54
2022/07/24 08:28:31;;;;;;;2.60;2.20;;;;;;;;;;4993680;28;20256;-54
2022/07/24 08:30:57;;;;;;;2.07;1.80;;;;;;;;;;4994769;28;20776;-54
2022/07/24 08:33:23;;;;;;;3.63;2.50;;;;;;;;;;4994603;28;20415;-54
2022/07/24 08:35:49;;;;;;;2.70;2.40;;;;;;;;;;4994642;28;20285;-54
2022/07/24 08:38:15;;;;;;;4.47;2.40;;;;;;;;;;4994736;28;20206;-54
2022/07/24 08:40:41;;;;;;;2.50;2.30;;;;;;;;;;4994624;28;20256;-54
2022/07/24 08:43:08;;;;;;;2.93;2.27;;;;;;;;;;4994278;28;20292;-54
2022/07/24 08:45:37;;;;;;;3.83;2.47;;;;;;;;;;4994393;28;20221;-54
2022/07/24 08:48:04;;;;;;;2.60;2.23;;;;;;;;;;4994159;28;20337;-54
2022/07/24 08:50:30;;;;;;;3.23;2.40;;;;;;;;;;4994602;28;20234;-53
2022/07/24 08:52:56;;;;;;;4.30;2.63;;;;;;;;;;4994316;28;20199;-54
2022/07/24 08:55:23;;;;;;;3.57;2.53;;;;;;;;;;4994198;28;20217;-54
2022/07/24 08:57:49;;;;;;;3.33;2.80;;;;;;;;;;4994244;28;20206;-54
2022/07/24 09:00:15;;;;;;;2.90;2.53;;;;;;;;;;4994178;28;20576;-53
2022/07/24 09:02:42;;;;;;;3.87;3.00;;;;;;;;;;4994244;28;20194;-53
2022/07/24 09:05:09;;;;;;;3.83;3.00;;;;;;;;;;4993827;28;20249;-54
2022/07/24 09:07:35;;;;;;;4.83;2.80;;;;;;;;;;4993994;28;20608;-53
2022/07/24 09:10:02;;;;;;;3.47;2.73;;;;;;;;;;4994169;28;20259;-53
2022/07/24 09:12:31;;;;;;;3.30;3.00;;;;;;;;;;4993940;28;20204;-53
2022/07/24 09:14:57;;;;;;;4.00;3.00;;;;;;;;;;4993960;28;20200;-53
2022/07/24 09:17:23;;;;;;;3.63;2.93;;;;;;;;;;4993719;28;20287;-54
2022/07/24 09:19:52;;;;;;;3.80;2.90;;;;;;;;;;4993831;28;20315;-53
2022/07/24 09:22:26;;;;;;;6.37;3.40;;;;;;;;;;4993727;28;20209;-53
2022/07/24 09:25:03;;;;;;;3.07;2.77;;;;;;;;;;4993585;28;20255;-54
2022/07/24 09:27:29;;;;;;;3.70;3.30;;;;;;;;;;4993631;28;20204;-54
2022/07/24 09:29:55;;;;;;;4.83;3.53;;;;;;;;;;4992291;28;20232;-54
2022/07/24 09:32:22;;;;;;;4.75;3.40;;;;;;;;;;4992242;28;20422;-53
2022/07/24 09:34:51;;;;;;;5.13;3.30;;;;;;;;;;4992250;28;20450;-53
2022/07/24 09:37:18;;;;;;;4.10;3.07;;;;;;;;;;4991802;28;21069;-54
2022/07/24 09:39:45;;;;;;;3.65;3.30;;;;;;;;;;4992860;28;20403;-55
2022/07/24 09:42:12;;;;;;;3.83;3.43;;;;;;;;;;4992431;28;20489;-54
2022/07/24 09:44:38;;;;;;;4.78;3.20;;;;;;;;;;4992419;28;20588;-55
2022/07/24 09:47:05;;;;;;;5.47;3.50;;;;;;;;;;4992160;28;20446;-54
2022/07/24 09:49:32;;;;;;;3.47;2.90;;;;;;;;;;4992394;28;20402;-55
2022/07/24 09:52:11;;;;;;;5.25;3.28;;;;;;;;;;4992433;28;20825;-54
2022/07/24 09:54:40;;;;;;;3.58;3.13;;;;;;;;;;4992188;28;20410;-55
2022/07/24 09:57:17;;;;;;;3.83;3.40;;;;;;;;;;4992355;28;20448;-56
2022/07/24 09:59:43;;;;;;;4.53;3.50;;;;;;;;;;4992448;28;20403;-54
2022/07/24 10:02:13;;;;;;;3.60;3.28;;;;;;;;;;4992102;28;20402;-55
2022/07/24 10:04:41;;;;;;;4.93;3.33;;;;;;;;;;4991778;28;20509;-54
2022/07/24 10:07:09;;;;;;;3.65;3.30;;;;;;;;;;4992159;28;20955;-53
2022/07/24 10:09:36;;;;;;;3.97;3.40;;;;;;;;;;4991992;28;20771;-53
2022/07/24 10:12:04;;;;;;;4.38;3.60;;;;;;;;;;4992057;28;20944;-54
2022/07/24 10:14:30;;;;;;;4.47;3.45;;;;;;;;;;4991838;28;20533;-54
2022/07/24 10:17:03;;;;;;;4.63;3.20;;;;;;;;;;4991769;28;20410;-54
2022/07/24 10:19:32;;;;;;;3.83;3.40;;;;;;;;;;4991820;28;20409;-53
2022/07/24 10:22:02;;;;;;;4.15;3.80;;;;;;;;;;4991794;28;20486;-53
2022/07/24 10:24:47;;;;;;;4.05;3.40;;;;;;;;;;4991712;28;20435;-55
2022/07/24 10:27:20;;;;;;;3.70;3.30;;;;;;;;;;4991205;28;20417;-55
2022/07/24 10:29:47;;;;;;;4.60;3.67;;;;;;;;;;4991856;28;20464;-55
2022/07/24 10:32:13;;;;;;;4.57;3.10;;;;;;;;;;4991554;28;20457;-54
2022/07/24 10:34:43;;;;;;;4.45;3.55;;;;;;;;;;4991454;28;20667;-54
2022/07/24 10:37:12;;;;;;;6.32;3.63;;;;;;;;;;4991338;28;20889;-54
2022/07/24 10:39:44;;;;;;;4.03;3.63;;;;;;;;;;4991160;28;20590;-54
2022/07/24 10:42:10;;;;;;;3.97;3.53;;;;;;;;;;4991284;28;20801;-54
2022/07/24 10:44:37;;;;;;;5.57;3.40;;;;;;;;;;4991021;28;20442;-54
2022/07/24 10:47:05;;;;;;;3.85;3.13;;;;;;;;;;4991082;28;20426;-55
2022/07/24 10:49:42;;;;;;;3.67;3.20;;;;;;;;;;4991297;28;20405;-53
2022/07/24 10:52:09;;;;;;;4.40;3.33;;;;;;;;;;4991050;28;20807;-54
2022/07/24 10:54:35;;;;;;;4.95;3.55;;;;;;;;;;4991231;28;20414;-54
2022/07/24 10:57:01;;;;;;;5.40;3.88;;;;;;;;;;4990714;28;20528;-55
2022/07/24 10:59:33;;;;;;;4.93;3.38;;;;;;;;;;4990988;28;20461;-54
2022/07/24 11:02:23;;;;;;;3.97;3.57;;;;;;;;;;4992175;28;20257;-54
2022/07/24 11:05:09;;;;;;;4.43;3.70;;;;;;;;;;4992026;28;20283;-54
2022/07/24 11:07:35;;;;;;;3.60;3.30;;;;;;;;;;4991986;28;20205;-55
2022/07/24 11:10:07;;;;;;;5.10;3.70;;;;;;;;;;4992320;28;20202;-55
2022/07/24 11:12:34;;;;;;;4.23;3.23;;;;;;;;;;4992199;28;20209;-55
2022/07/24 11:15:54;;;;;;;4.40;3.80;;;;;;;;;;4992109;28;20202;-55
2022/07/24 11:17:48;;;;;;;5.10;3.60;;;;;;;;;;4992273;28;20204;-55
2022/07/24 11:20:14;;;;;;;4.00;3.30;;;;;;;;;;4992315;28;20207;-55
2022/07/24 11:22:42;;;;;;;3.93;3.63;;;;;;;;;;4992237;28;20272;-55
2022/07/24 11:25:09;;;;;;;4.93;3.63;;;;;;;;;;4992145;28;20640;-56
2022/07/24 11:27:43;;;;;;;3.80;2.90;;;;;;;;;;4992157;28;20237;-55
2022/07/24 11:30:10;;;;;;;3.50;3.13;;;;;;;;;;4992234;28;20235;-55
2022/07/24 11:32:37;;;;;;;4.40;3.23;;;;;;;;;;4992067;28;20225;-55
2022/07/24 11:35:06;;;;;;;3.70;3.30;;;;;;;;;;4992184;28;20688;-55
2022/07/24 11:37:32;;;;;;;4.73;3.40;;;;;;;;;;4991989;28;20582;-55
2022/07/24 11:39:59;;;;;;;5.60;3.70;;;;;;;;;;4992261;28;20629;-55
2022/07/24 11:42:25;;;;;;;5.13;3.33;;;;;;;;;;4991999;28;20671;-55
2022/07/24 11:44:51;;;;;;;5.70;3.20;;;;;;;;;;4992013;28;20230;-55
2022/07/24 11:47:18;;;;;;;4.83;3.03;;;;;;;;;;4991796;28;20239;-55
2022/07/24 11:49:44;;;;;;;3.70;3.40;;;;;;;;;;4991973;28;20194;-55
2022/07/24 11:52:17;;;;;;;4.33;3.50;;;;;;;;;;4992081;28;20275;-55
2022/07/24 11:54:43;;;;;;;3.93;3.27;;;;;;;;;;4991966;28;20271;-55
2022/07/24 11:57:16;;;;;;;3.90;3.30;;;;;;;;;;4991925;28;20291;-55
2022/07/24 11:59:42;;;;;;;3.83;3.30;;;;;;;;;;4993400;28;20282;-55
2022/07/24 12:02:09;;;;;;;6.67;3.10;;;;;;;;;;4995651;28;20300;-55
2022/07/24 12:04:36;;;;;;;3.83;3.30;;;;;;;;;;4995441;28;20236;-55
2022/07/24 12:07:06;;;;;;;5.03;3.50;;;;;;;;;;4995738;28;20578;-55
2022/07/24 12:09:33;;;;;;;3.40;3.00;;;;;;;;;;4995422;28;20716;-55
2022/07/24 12:11:59;;;;;;;4.37;3.07;;;;;;;;;;4995549;28;20210;-55
2022/07/24 12:14:25;;;;;;;3.80;3.37;;;;;;;;;;4995159;28;20196;-55
2022/07/24 12:16:52;;;;;;;7.60;3.67;;;;;;;;;;4995371;28;20200;-55
2022/07/24 12:19:19;;;;;;;3.50;3.10;;;;;;;;;;4995238;28;20671;-55
2022/07/24 12:21:46;;;;;;;4.07;3.30;;;;;;;;;;4995447;28;20221;-55
2022/07/24 12:24:12;;;;;;;3.87;3.00;;;;;;;;;;4995218;28;20256;-54
2022/07/24 12:26:53;;;;;;;4.50;3.47;;;;;;;;;;4994994;28;20286;-54
2022/07/24 12:29:19;;;;;;;4.87;3.60;;;;;;;;;;4995072;28;20255;-55
2022/07/24 12:31:45;;;;;;;4.40;3.33;;;;;;;;;;4995055;28;20678;-54
2022/07/24 12:34:11;;;;;;;3.67;3.13;;;;;;;;;;4995144;28;20293;-55
2022/07/24 12:36:39;;;;;;;4.40;3.27;;;;;;;;;;4994791;28;20202;-55
2022/07/24 12:39:05;;;;;;;4.60;3.30;;;;;;;;;;4995021;28;20555;-55
2022/07/24 12:41:32;;;;;;;3.47;3.10;;;;;;;;;;4994957;28;20229;-54
2022/07/24 12:44:00;;;;;;;4.50;3.27;;;;;;;;;;4994868;28;20273;-55
2022/07/24 12:46:30;;;;;;;3.67;3.30;;;;;;;;;;4994530;28;20794;-55
2022/07/24 12:48:57;;;;;;;4.20;3.17;;;;;;;;;;4994865;28;20315;-54
2022/07/24 12:51:23;;;;;;;3.80;3.40;;;;;;;;;;4994745;28;20209;-55
2022/07/24 12:53:53;;;;;;;3.67;3.37;;;;;;;;;;4994696;28;20205;-55
2022/07/24 12:56:19;;;;;;;4.37;3.67;;;;;;;;;;4994523;28;20256;-53
2022/07/24 12:58:50;;;;;;;4.77;3.43;;;;;;;;;;4994328;28;20735;-54
2022/07/24 13:01:17;;;;;;;3.70;3.30;;;;;;;;;;4994450;28;20249;-55
2022/07/24 13:03:49;;;;;;;4.13;3.53;;;;;;;;;;4994287;28;20235;-55
2022/07/24 13:06:16;;;;;;;3.60;3.30;;;;;;;;;;4994468;28;20291;-55
2022/07/24 13:08:41;;;;;;;3.77;3.37;;;;;;;;;;4994149;28;20278;-55
2022/07/24 13:11:07;;;;;;;8.13;3.20;;;;;;;;;;4993122;28;20661;-55
2022/07/24 13:13:33;;;;;;;4.60;3.63;;;;;;;;;;4993812;28;20203;-56
2022/07/24 13:15:59;;;;;;;5.00;3.40;;;;;;;;;;4994111;28;20238;-56
2022/07/24 13:18:27;;;;;;;3.30;3.00;;;;;;;;;;4994176;28;20285;-55
2022/07/24 13:20:53;;;;;;;4.23;3.57;;;;;;;;;;4994208;28;20216;-55
2022/07/24 13:23:19;;;;;;;3.60;3.30;;;;;;;;;;4994010;28;20208;-56
2022/07/24 13:25:47;;;;;;;3.50;3.20;;;;;;;;;;4993309;28;20206;-55
2022/07/24 13:28:13;;;;;;;3.37;3.00;;;;;;;;;;5010467;28;20635;-54
2022/07/24 13:30:39;;;;;;;4.43;3.40;;;;;;;;;;4993584;28;20206;-55
2022/07/24 13:33:05;;;;;;;4.00;3.27;;;;;;;;;;4993872;28;20216;-55
2022/07/24 13:35:32;;;;;;;5.23;3.50;;;;;;;;;;4990531;28;20472;-56
2022/07/24 13:37:59;;;;;;;4.32;3.22;;;;;;;;;;4992650;28;20411;-55
2022/07/24 13:40:25;;;;;;;4.22;3.20;;;;;;;;;;4992596;28;21052;-55
2022/07/24 13:42:51;;;;;;;3.77;3.27;;;;;;;;;;4992022;28;20493;-56
2022/07/24 13:45:17;;;;;;;4.05;2.92;;;;;;;;;;4992337;28;20422;-55
2022/07/24 13:47:43;;;;;;;4.40;3.47;;;;;;;;;;4990352;28;20468;-55
2022/07/24 13:50:09;;;;;;;3.60;3.30;;;;;;;;;;4992202;28;20399;-54
2022/07/24 13:52:36;;;;;;;3.38;3.10;;;;;;;;;;4992130;28;20410;-55
2022/07/24 13:55:02;;;;;;;8.00;3.42;;;;;;;;;;4992315;28;20422;-55
2022/07/24 13:57:29;;;;;;;3.67;3.38;;;;;;;;;;4991901;28;20406;-55
2022/07/24 13:59:55;;;;;;;3.58;3.20;;;;;;;;;;4991895;28;20468;-54
2022/07/24 14:02:21;;;;;;;5.13;3.15;;;;;;;;;;4991812;28;20406;-55
2022/07/24 14:04:47;;;;;;;4.57;3.40;;;;;;;;;;4992011;28;20422;-55
2022/07/24 14:07:13;;;;;;;3.75;3.33;;;;;;;;;;4992087;28;20754;-55
2022/07/24 14:09:40;;;;;;;3.55;3.25;;;;;;;;;;4991877;28;20420;-54
2022/07/24 14:12:07;;;;;;;4.18;3.25;;;;;;;;;;4991614;28;20836;-55
2022/07/24 14:14:33;;;;;;;3.72;3.22;;;;;;;;;;4991743;28;20485;-55
2022/07/24 14:16:59;;;;;;;3.40;3.10;;;;;;;;;;4991649;28;20457;-54
2022/07/24 14:19:25;;;;;;;4.25;3.30;;;;;;;;;;4991750;28;20402;-55
2022/07/24 14:21:51;;;;;;;3.55;3.10;;;;;;;;;;4991370;28;20406;-55
2022/07/24 14:24:18;;;;;;;3.85;3.03;;;;;;;;;;4991753;28;20445;-55
2022/07/24 14:26:46;;;;;;;4.07;3.23;;;;;;;;;;4991598;28;20434;-55
2022/07/24 14:29:12;;;;;;;6.15;3.10;;;;;;;;;;4991552;28;20418;-55
2022/07/24 14:31:38;;;;;;;3.38;3.08;;;;;;;;;;4991333;28;20451;-55
2022/07/24 14:34:04;;;;;;;4.10;3.07;;;;;;;;;;4991459;28;20781;-55
2022/07/24 14:36:31;;;;;;;3.35;2.95;;;;;;;;;;4992098;28;20453;-55
2022/07/24 14:38:57;;;;;;;4.30;3.10;;;;;;;;;;4990930;28;20506;-55
2022/07/24 14:41:23;;;;;;;4.35;3.10;;;;;;;;;;4991344;28;20430;-58